Terminal Aerodrome Forecast
Issued by NWS

Home | Current Version | Previous Version | Graphics & Text | Print | Product List | Glossary On
Versions: 1 2 3 4 5 6 7 8 9 10 11 12 13 14 15 16 17 18 19 20 21
000
FTUS43 KGRB 242329
TAFMTW
TAF
KMTW 242329Z 2500/2524 02010G16KT P6SM -RA OVC006
      TEMPO 2500/2504 4SM -RA SCT006 OVC012
     FM250400 02011G18KT P6SM -RA OVC006
     FM250800 03012G18KT P6SM VCSH SCT006 OVC012
     FM251500 05013G20KT P6SM OVC015
     FM251800 06015G23KT P6SM VCSH SCT009 OVC015
      TEMPO 2520/2524 4SM -RA BR BKN009=

USA.gov is the U.S. government's official web portal to all federal, state and local government web resources and services.